createdAt,value
2022-11-24T00:01:18.004Z,0.20
2022-11-24T00:03:46.519Z,0.20
2022-11-24T00:06:15.866Z,0.30
2022-11-24T00:08:44.747Z,0.30
2022-11-24T00:11:18.863Z,0.30
2022-11-24T00:13:45.989Z,0.20
2022-11-24T00:16:14.454Z,0.20
2022-11-24T00:18:43.695Z,0.20
2022-11-24T00:21:10.699Z,0.20
2022-11-24T00:23:38.297Z,0.20
2022-11-24T00:26:05.082Z,0.30
2022-11-24T00:28:33.547Z,0.30
2022-11-24T00:31:00.940Z,0.30
2022-11-24T00:33:27.786Z,0.25
2022-11-24T00:35:59.040Z,0.20
2022-11-24T00:38:26.470Z,0.20
2022-11-24T00:40:53.295Z,0.20
2022-11-24T00:43:20.382Z,0.20
2022-11-24T00:45:47.293Z,0.20
2022-11-24T00:48:14.166Z,0.20
2022-11-24T00:50:40.837Z,0.30
2022-11-24T00:53:07.625Z,0.30
2022-11-24T00:55:34.481Z,0.30
2022-11-24T00:58:01.141Z,0.30
2022-11-24T01:00:27.877Z,0.25
2022-11-24T01:02:54.662Z,0.20
2022-11-24T01:05:21.403Z,0.20
2022-11-24T01:07:48.175Z,0.20
2022-11-24T01:10:15.051Z,0.20
2022-11-24T01:12:41.709Z,0.20
2022-11-24T01:15:09.092Z,0.30
2022-11-24T01:17:36.237Z,0.30
2022-11-24T01:20:04.711Z,0.30
2022-11-24T01:22:31.489Z,0.20
2022-11-24T01:24:58.185Z,0.20
2022-11-24T01:27:24.933Z,0.30
2022-11-24T01:29:51.584Z,0.30
2022-11-24T01:32:18.335Z,0.22
2022-11-24T01:34:45.051Z,0.30
2022-11-24T01:37:11.911Z,0.30
2022-11-24T01:39:38.926Z,0.25
2022-11-24T01:42:05.703Z,0.20
2022-11-24T01:44:32.610Z,0.20
2022-11-24T01:47:27.381Z,0.10
2022-11-24T01:49:58.891Z,0.30
2022-11-24T01:52:32.259Z,0.30
2022-11-24T01:55:03.493Z,0.30
2022-11-24T01:57:36.114Z,0.20
2022-11-24T02:00:07.683Z,0.20
2022-11-24T02:02:34.545Z,0.20
2022-11-24T02:05:08.252Z,0.20
2022-11-24T02:07:36.203Z,0.30
2022-11-24T02:10:08.237Z,0.30
2022-11-24T02:12:36.678Z,0.30
2022-11-24T02:15:03.692Z,0.30
2022-11-24T02:17:30.375Z,0.20
2022-11-24T02:20:04.155Z,0.20
2022-11-24T02:23:04.457Z,0.20
2022-11-24T02:25:47.999Z,0.30
2022-11-24T02:28:18.609Z,0.20
2022-11-24T02:30:45.728Z,0.20
2022-11-24T02:33:13.303Z,0.20
2022-11-24T02:35:40.501Z,0.20
2022-11-24T02:38:07.238Z,0.20
2022-11-24T02:40:33.934Z,0.30
2022-11-24T02:43:12.411Z,0.30
2022-11-24T02:45:39.246Z,0.20
2022-11-24T02:48:06.216Z,0.20
2022-11-24T02:50:32.976Z,0.20
2022-11-24T02:52:59.642Z,0.20
2022-11-24T02:55:26.355Z,0.13
2022-11-24T02:57:52.991Z,0.20
2022-11-24T03:00:19.999Z,0.30
2022-11-24T03:02:47.098Z,0.30
2022-11-24T03:05:13.875Z,0.30
2022-11-24T03:07:40.664Z,0.20
2022-11-24T03:10:07.708Z,0.20
2022-11-24T03:12:34.613Z,0.20
2022-11-24T03:15:03.125Z,0.20
2022-11-24T03:17:29.982Z,0.20
2022-11-24T03:20:01.460Z,0.20
2022-11-24T03:22:30.905Z,0.30
2022-11-24T03:24:57.681Z,0.30
2022-11-24T03:27:24.423Z,0.30
2022-11-24T03:29:51.085Z,0.30
2022-11-24T03:32:17.847Z,0.20
2022-11-24T03:34:44.519Z,0.20
2022-11-24T03:37:11.943Z,0.20
2022-11-24T03:39:38.644Z,0.20
2022-11-24T03:42:05.439Z,0.20
2022-11-24T03:44:32.461Z,0.20
2022-11-24T03:46:59.437Z,0.30
2022-11-24T03:49:26.144Z,0.30
2022-11-24T03:51:52.932Z,0.30
2022-11-24T03:54:19.613Z,0.30
2022-11-24T03:56:46.501Z,0.20
2022-11-24T03:59:13.377Z,0.20
2022-11-24T04:01:40.220Z,0.20
2022-11-24T04:04:06.977Z,0.15
2022-11-24T04:06:33.606Z,0.20
2022-11-24T04:09:00.644Z,0.30
2022-11-24T04:11:46.209Z,0.30
2022-11-24T04:14:13.938Z,0.30
2022-11-24T04:16:41.156Z,0.20
2022-11-24T04:19:07.931Z,0.30
2022-11-24T04:21:34.611Z,0.30
2022-11-24T04:24:01.299Z,0.30
2022-11-24T04:26:28.288Z,0.30
2022-11-24T04:28:54.930Z,0.20
2022-11-24T04:31:21.795Z,0.20
2022-11-24T04:33:48.547Z,0.10
2022-11-24T04:36:15.201Z,0.20
2022-11-24T04:39:20.140Z,0.30
2022-11-24T04:41:28.459Z,0.20
2022-11-24T04:43:55.230Z,0.20
2022-11-24T04:46:21.965Z,0.10
2022-11-24T04:48:48.722Z,0.20
2022-11-24T04:51:15.638Z,0.30
2022-11-24T04:53:42.601Z,0.20
2022-11-24T04:56:09.549Z,0.20
2022-11-24T04:58:36.319Z,0.20
2022-11-24T05:01:07.297Z,0.10
2022-11-24T05:03:34.417Z,0.25
2022-11-24T05:06:01.517Z,0.27
2022-11-24T05:08:28.202Z,0.20
2022-11-24T05:10:54.827Z,0.20
2022-11-24T05:13:21.454Z,0.20
2022-11-24T05:15:48.138Z,0.20
2022-11-24T05:18:16.543Z,0.30
2022-11-24T05:20:46.578Z,0.30
2022-11-24T05:23:13.569Z,0.30
2022-11-24T05:25:46.198Z,0.20
2022-11-24T05:28:14.208Z,0.20
2022-11-24T05:30:41.359Z,0.20
2022-11-24T05:33:12.752Z,0.20
2022-11-24T05:35:39.422Z,0.30
2022-11-24T05:38:06.553Z,0.30
2022-11-24T05:40:33.396Z,0.30
2022-11-24T05:43:00.527Z,0.30
2022-11-24T05:45:27.313Z,0.20
2022-11-24T05:47:54.137Z,0.20
2022-11-24T05:50:22.634Z,0.20
2022-11-24T05:52:50.232Z,0.30
2022-11-24T05:55:17.402Z,0.30
2022-11-24T05:57:44.101Z,0.30
2022-11-24T06:00:11.460Z,0.25
2022-11-24T06:02:38.315Z,0.20
2022-11-24T06:05:05.369Z,0.20
2022-11-24T06:07:32.054Z,0.13
2022-11-24T06:09:58.834Z,0.20
2022-11-24T06:12:25.548Z,0.30
2022-11-24T06:14:52.460Z,0.30
2022-11-24T06:17:19.404Z,0.20
2022-11-24T06:19:49.986Z,0.20
2022-11-24T06:22:17.695Z,0.30
2022-11-24T06:24:44.383Z,0.20
2022-11-24T06:27:11.151Z,0.20
2022-11-24T06:29:38.229Z,0.20
2022-11-24T06:32:05.548Z,0.20
2022-11-24T06:34:32.760Z,0.20
2022-11-24T06:36:59.826Z,0.30
2022-11-24T06:39:26.674Z,0.28
2022-11-24T06:41:53.418Z,0.20
2022-11-24T06:44:20.175Z,0.10
2022-11-24T06:46:46.953Z,0.20
2022-11-24T06:49:14.022Z,0.30
2022-11-24T06:51:41.800Z,0.30
2022-11-24T06:54:10.114Z,0.20
2022-11-24T06:56:36.931Z,0.10
2022-11-24T06:59:03.682Z,0.20
2022-11-24T07:01:31.126Z,0.25
2022-11-24T07:03:58.736Z,0.20
2022-11-24T07:06:26.301Z,0.10
2022-11-24T07:08:53.212Z,0.20
2022-11-24T07:11:23.930Z,0.30
2022-11-24T07:13:59.692Z,0.20
2022-11-24T07:16:27.584Z,0.10
2022-11-24T07:18:55.016Z,0.20
2022-11-24T07:21:23.582Z,0.20
2022-11-24T07:23:51.967Z,0.10
2022-11-24T07:26:19.595Z,0.20
2022-11-24T07:28:46.669Z,0.30
2022-11-24T07:31:19.141Z,0.20
2022-11-24T07:33:53.803Z,0.10
2022-11-24T07:36:21.264Z,0.20
2022-11-24T07:38:48.157Z,0.25
2022-11-24T07:41:16.743Z,0.30
2022-11-24T07:43:43.663Z,0.20
2022-11-24T07:46:13.269Z,0.10
2022-11-24T07:48:40.146Z,0.25
2022-11-24T07:51:07.412Z,0.30
2022-11-24T07:53:34.530Z,0.20
2022-11-24T07:56:03.194Z,0.10
2022-11-24T07:58:32.903Z,0.17
2022-11-24T08:01:00.968Z,0.30
2022-11-24T08:03:28.170Z,0.20
2022-11-24T08:06:23.083Z,0.20
2022-11-24T08:08:47.102Z,0.20
2022-11-24T08:11:16.217Z,0.20
2022-11-24T08:13:43.657Z,0.20
2022-11-24T08:16:15.926Z,0.10
2022-11-24T08:18:43.370Z,0.20
2022-11-24T08:21:14.626Z,0.25
2022-11-24T08:23:42.334Z,0.20
2022-11-24T08:26:13.870Z,0.10
2022-11-24T08:28:40.668Z,0.30
2022-11-24T08:31:10.471Z,0.20
2022-11-24T08:33:38.041Z,0.20
2022-11-24T08:36:11.324Z,0.10
2022-11-24T08:38:38.561Z,0.30
2022-11-24T08:41:10.811Z,0.30
2022-11-24T08:43:38.096Z,0.10
2022-11-24T08:46:13.975Z,0.10
2022-11-24T08:51:09.558Z,0.27
2022-11-24T08:53:36.744Z,0.10
2022-11-24T08:56:04.677Z,0.20
2022-11-24T08:58:32.508Z,0.20
2022-11-24T09:01:11.109Z,0.20
2022-11-24T09:03:41.255Z,0.17
2022-11-24T09:06:11.817Z,0.28
2022-11-24T09:08:42.865Z,0.10
2022-11-24T09:11:14.409Z,0.20
2022-11-24T09:13:44.102Z,0.10
2022-11-24T09:16:17.178Z,0.20
2022-11-24T09:18:44.535Z,0.10
2022-11-24T09:21:18.992Z,0.20
2022-11-24T09:23:50.774Z,0.10
2022-11-24T09:26:25.892Z,0.20
2022-11-24T09:28:54.640Z,0.10
2022-11-24T09:31:25.173Z,0.20
2022-11-24T09:33:53.263Z,0.20
2022-11-24T09:36:21.412Z,0.10
2022-11-24T09:38:48.279Z,0.20
2022-11-24T09:41:18.017Z,0.10
2022-11-24T09:43:47.788Z,0.20
2022-11-24T09:46:41.965Z,0.10
2022-11-24T09:49:15.792Z,0.20
2022-11-24T09:51:46.883Z,0.10
2022-11-24T09:54:23.299Z,0.20
2022-11-24T09:56:52.022Z,0.10
2022-11-24T09:59:21.546Z,0.20
2022-11-24T10:01:50.040Z,0.10
2022-11-24T10:04:46.961Z,0.20
2022-11-24T10:07:30.984Z,0.13
2022-11-24T10:10:24.197Z,0.10
2022-11-24T10:13:16.731Z,0.20
2022-11-24T10:16:11.775Z,0.10
2022-11-24T10:19:36.480Z,0.10
2022-11-24T10:22:15.434Z,0.10
2022-11-24T10:25:07.560Z,0.20
2022-11-24T10:27:46.849Z,0.10
2022-11-24T10:30:22.354Z,0.10
2022-11-24T10:32:58.402Z,0.10
2022-11-24T10:35:45.500Z,0.20
2022-11-24T10:38:21.527Z,0.20
2022-11-24T10:40:57.332Z,0.10
2022-11-24T10:43:28.635Z,0.10
2022-11-24T10:46:06.543Z,0.20
2022-11-24T10:48:45.069Z,0.10
2022-11-24T10:51:33.838Z,0.10
2022-11-24T10:54:20.529Z,0.00
2022-11-24T10:56:50.473Z,0.10
2022-11-24T10:59:32.134Z,0.10
2022-11-24T11:02:02.260Z,0.10
2022-11-24T11:04:35.319Z,0.10
2022-11-24T11:07:10.338Z,0.10
2022-11-24T11:09:39.917Z,0.10
2022-11-24T11:12:44.876Z,0.03
2022-11-24T11:15:31.890Z,0.03
2022-11-24T11:18:00.377Z,0.00
2022-11-24T11:20:35.385Z,0.00
2022-11-24T11:23:20.006Z,0.00
2022-11-24T11:25:48.122Z,0.00
2022-11-24T11:28:26.778Z,0.00
2022-11-24T11:31:17.432Z,0.10
2022-11-24T11:34:09.415Z,0.00
2022-11-24T11:37:03.291Z,0.00
2022-11-24T11:39:36.139Z,0.00
2022-11-24T11:43:00.174Z,0.00
2022-11-24T11:45:21.025Z,0.10
2022-11-24T11:47:59.061Z,0.03
2022-11-24T11:50:59.094Z,0.00
2022-11-24T11:53:55.927Z,0.00
2022-11-24T11:56:35.861Z,0.10
2022-11-24T11:59:44.871Z,0.10
2022-11-24T12:02:27.044Z,0.10
2022-11-24T12:04:59.408Z,0.10
2022-11-24T12:07:56.587Z,0.10
2022-11-24T12:10:50.915Z,0.08
2022-11-24T12:13:34.864Z,0.10
2022-11-24T12:16:13.476Z,0.10
2022-11-24T12:18:57.539Z,0.10
2022-11-24T12:21:43.881Z,0.10
2022-11-24T12:24:32.470Z,0.10
2022-11-24T12:27:05.404Z,0.10
2022-11-24T12:29:50.190Z,0.10
2022-11-24T12:32:41.395Z,0.10
2022-11-24T12:35:33.782Z,0.10
2022-11-24T12:38:24.460Z,0.10
2022-11-24T12:41:06.508Z,0.10
2022-11-24T12:43:44.131Z,0.10
2022-11-24T12:46:18.078Z,0.10
2022-11-24T12:49:06.576Z,0.10
2022-11-24T12:51:37.214Z,0.10
2022-11-24T12:54:09.895Z,0.10
2022-11-24T12:56:45.270Z,0.10
2022-11-24T12:59:14.714Z,0.10
2022-11-24T13:02:05.020Z,0.10
2022-11-24T13:04:45.202Z,0.10
2022-11-24T13:07:39.820Z,0.10
2022-11-24T13:13:13.561Z,0.10
2022-11-24T13:16:13.191Z,0.10
2022-11-24T13:19:00.398Z,0.10
2022-11-24T13:21:50.976Z,0.10
2022-11-24T13:24:18.849Z,0.10
2022-11-24T13:26:48.556Z,0.10
2022-11-24T13:29:32.525Z,0.15
2022-11-24T13:32:02.209Z,0.13
2022-11-24T13:34:40.769Z,0.10
2022-11-24T13:37:39.795Z,0.10
2022-11-24T13:40:13.425Z,0.20
2022-11-24T13:42:58.773Z,0.10
2022-11-24T13:45:45.131Z,0.10
2022-11-24T13:48:21.969Z,0.10
2022-11-24T13:50:53.249Z,0.10
2022-11-24T13:53:42.385Z,0.20
2022-11-24T13:56:12.144Z,0.10
2022-11-24T13:58:38.760Z,0.10
2022-11-24T14:01:12.524Z,0.10
2022-11-24T14:07:05.580Z,0.10
2022-11-24T14:09:36.429Z,0.20
2022-11-24T14:12:24.702Z,0.10
2022-11-24T14:15:12.490Z,0.10
2022-11-24T14:17:39.220Z,0.10
2022-11-24T14:20:22.016Z,0.20
2022-11-24T14:22:48.727Z,0.20
2022-11-24T14:25:29.874Z,0.10
2022-11-24T14:27:57.040Z,0.10
2022-11-24T14:30:25.471Z,0.20
2022-11-24T14:32:56.379Z,0.10
2022-11-24T14:35:31.964Z,0.20
2022-11-24T14:38:04.136Z,0.20
2022-11-24T14:40:43.314Z,0.10
2022-11-24T14:43:29.995Z,0.20
2022-11-24T14:46:03.604Z,0.20
2022-11-24T14:48:37.323Z,0.10
2022-11-24T14:51:14.592Z,0.20
2022-11-24T14:53:43.669Z,0.10
2022-11-24T14:56:27.478Z,0.20
2022-11-24T14:58:55.670Z,0.10
2022-11-24T15:01:28.318Z,0.13
2022-11-24T15:04:26.977Z,0.20
2022-11-24T15:07:23.952Z,0.17
2022-11-24T15:09:59.619Z,0.10
2022-11-24T15:12:42.752Z,0.20
2022-11-24T15:15:15.526Z,0.10
2022-11-24T15:17:49.631Z,0.20
2022-11-24T15:20:20.118Z,0.10
2022-11-24T15:22:47.006Z,0.30
2022-11-24T15:25:28.772Z,0.10
2022-11-24T15:27:55.614Z,0.20
2022-11-24T15:30:22.444Z,0.20
2022-11-24T15:32:53.985Z,0.10
2022-11-24T15:35:22.784Z,0.20
2022-11-24T15:37:50.091Z,0.20
2022-11-24T15:40:17.895Z,0.10
2022-11-24T15:42:53.200Z,0.20
2022-11-24T15:45:21.753Z,0.20
2022-11-24T15:47:48.559Z,0.10
2022-11-24T15:50:15.975Z,0.20
2022-11-24T15:52:43.980Z,0.20
2022-11-24T15:55:18.983Z,0.20
2022-11-24T15:57:46.174Z,0.10
2022-11-24T16:00:17.970Z,0.20
2022-11-24T16:02:44.643Z,0.30
2022-11-24T16:05:12.991Z,0.20
2022-11-24T16:07:39.940Z,0.20
2022-11-24T16:10:12.679Z,0.20
2022-11-24T16:12:39.339Z,0.30
2022-11-24T16:15:06.348Z,0.20
2022-11-24T16:17:33.050Z,0.20
2022-11-24T16:20:00.755Z,0.20
2022-11-24T16:22:27.886Z,0.10
2022-11-24T16:24:54.570Z,0.20
2022-11-24T16:27:21.213Z,0.30
2022-11-24T16:29:47.902Z,0.20
2022-11-24T16:32:14.517Z,0.20
2022-11-24T16:34:41.256Z,0.20
2022-11-24T16:37:07.946Z,0.20
2022-11-24T16:39:34.632Z,0.28
2022-11-24T16:42:01.450Z,0.30
2022-11-24T16:44:28.176Z,0.30
2022-11-24T16:46:55.011Z,0.30
2022-11-24T16:49:22.022Z,0.20
2022-11-24T16:51:48.844Z,0.20
2022-11-24T16:54:15.577Z,0.20
2022-11-24T16:56:42.318Z,0.20
2022-11-24T16:59:09.111Z,0.20
2022-11-24T17:01:35.990Z,0.20
2022-11-24T17:04:03.263Z,0.30
2022-11-24T17:06:33.133Z,0.30
2022-11-24T17:09:00.099Z,0.30
2022-11-24T17:11:28.081Z,0.30
2022-11-24T17:13:57.199Z,0.30
2022-11-24T17:16:25.612Z,0.20
2022-11-24T17:18:53.404Z,0.20
2022-11-24T17:21:22.435Z,0.20
2022-11-24T17:23:54.167Z,0.20
2022-11-24T17:26:21.191Z,0.20
2022-11-24T17:28:48.340Z,0.20
2022-11-24T17:31:35.714Z,0.20
2022-11-24T17:34:04.570Z,0.30
2022-11-24T17:36:33.169Z,0.30
2022-11-24T17:39:00.543Z,0.30
2022-11-24T17:41:27.949Z,0.30
2022-11-24T17:43:56.593Z,0.30
2022-11-24T17:46:28.284Z,0.30
2022-11-24T17:48:55.516Z,0.30
2022-11-24T17:51:24.451Z,0.30
2022-11-24T17:53:52.741Z,0.30
2022-11-24T17:56:24.561Z,0.30
2022-11-24T17:58:59.068Z,0.30
2022-11-24T18:01:28.369Z,0.20
2022-11-24T18:03:55.113Z,0.30
2022-11-24T18:06:25.089Z,0.20
2022-11-24T18:08:53.062Z,0.20
2022-11-24T18:11:30.674Z,0.20
2022-11-24T18:14:01.465Z,0.20
2022-11-24T18:16:32.297Z,0.20
2022-11-24T18:19:08.688Z,0.20
2022-11-24T18:21:40.843Z,0.20
2022-11-24T18:24:12.524Z,0.20
2022-11-24T18:26:43.090Z,0.20
2022-11-24T18:29:11.121Z,0.20
2022-11-24T18:31:38.408Z,0.20
2022-11-24T18:34:06.422Z,0.30
2022-11-24T18:36:33.795Z,0.30
2022-11-24T18:39:05.526Z,0.30
2022-11-24T18:41:32.562Z,0.30
2022-11-24T18:44:02.371Z,0.30
2022-11-24T18:46:29.214Z,0.30
2022-11-24T18:48:55.921Z,0.30
2022-11-24T18:51:23.526Z,0.30
2022-11-24T18:53:54.372Z,0.30
2022-11-24T18:56:21.630Z,0.38
2022-11-24T18:58:51.597Z,0.30
2022-11-24T19:01:22.512Z,0.40
2022-11-24T19:03:54.389Z,0.30
2022-11-24T19:06:23.893Z,0.30
2022-11-24T19:08:53.662Z,0.30
2022-11-24T19:11:25.955Z,0.30
2022-11-24T19:13:52.594Z,0.30
2022-11-24T19:16:20.344Z,0.30
2022-11-24T19:18:53.698Z,0.20
2022-11-24T19:21:22.374Z,0.20
2022-11-24T19:23:50.161Z,0.20
2022-11-24T19:26:16.907Z,0.30
2022-11-24T19:28:43.874Z,0.30
2022-11-24T19:31:13.983Z,0.30
2022-11-24T19:33:41.832Z,0.30
2022-11-24T19:36:12.579Z,0.30
2022-11-24T19:38:40.968Z,0.30
2022-11-24T19:41:10.802Z,0.30
2022-11-24T19:43:37.855Z,0.30
2022-11-24T19:46:09.505Z,0.30
2022-11-24T19:48:38.666Z,0.30
2022-11-24T19:51:08.196Z,0.30
2022-11-24T19:53:35.797Z,0.30
2022-11-24T19:56:07.519Z,0.30
2022-11-24T19:58:35.606Z,0.30
2022-11-24T20:01:17.340Z,0.30
2022-11-24T20:03:45.411Z,0.30
2022-11-24T20:06:13.981Z,0.30
2022-11-24T20:08:42.484Z,0.30
2022-11-24T20:11:14.707Z,0.30
2022-11-24T20:13:43.315Z,0.30
2022-11-24T20:16:11.398Z,0.30
2022-11-24T20:18:42.396Z,0.30
2022-11-24T20:21:10.409Z,0.30
2022-11-24T20:23:37.198Z,0.40
2022-11-24T20:26:08.686Z,0.40
2022-11-24T20:28:35.768Z,0.30
2022-11-24T20:31:15.018Z,0.40
2022-11-24T20:33:42.165Z,0.30
2022-11-24T20:36:15.048Z,0.40
2022-11-24T20:38:43.065Z,0.40
2022-11-24T20:41:21.668Z,0.30
2022-11-24T20:43:49.449Z,0.30
2022-11-24T20:46:19.132Z,0.30
2022-11-24T20:48:46.436Z,0.30
2022-11-24T20:51:21.261Z,0.30
2022-11-24T20:53:53.242Z,0.30
2022-11-24T20:56:25.878Z,0.30
2022-11-24T20:58:53.067Z,0.30
2022-11-24T21:01:20.846Z,0.30
2022-11-24T21:03:52.506Z,0.30
2022-11-24T21:06:19.289Z,0.30
2022-11-24T21:08:46.216Z,0.30
2022-11-24T21:11:15.253Z,0.30
2022-11-24T21:13:45.124Z,0.30
2022-11-24T21:16:16.880Z,0.30
2022-11-24T21:18:45.399Z,0.30
2022-11-24T21:21:13.739Z,0.35
2022-11-24T21:23:40.740Z,0.30
2022-11-24T21:26:16.501Z,0.20
2022-11-24T21:28:46.173Z,0.22
2022-11-24T21:31:19.605Z,0.30
2022-11-24T21:33:48.948Z,0.30
2022-11-24T21:36:17.873Z,0.30
2022-11-24T21:38:49.228Z,0.30
2022-11-24T21:41:15.918Z,0.35
2022-11-24T21:43:42.679Z,0.40
2022-11-24T21:46:11.264Z,0.38
2022-11-24T21:48:39.931Z,0.30
2022-11-24T21:51:11.576Z,0.28
2022-11-24T21:53:38.813Z,0.30
2022-11-24T21:56:09.883Z,0.30
2022-11-24T21:58:36.742Z,0.30
2022-11-24T22:01:06.518Z,0.30
2022-11-24T22:03:33.374Z,0.30
2022-11-24T22:06:01.282Z,0.30
2022-11-24T22:08:30.150Z,0.40
2022-11-24T22:11:15.881Z,0.30
2022-11-24T22:13:43.538Z,0.30
2022-11-24T22:16:13.508Z,0.30
2022-11-24T22:18:41.911Z,0.30
2022-11-24T22:21:14.924Z,0.30
2022-11-24T22:23:42.262Z,0.30
2022-11-24T22:26:13.466Z,0.30
2022-11-24T22:28:40.695Z,0.40
2022-11-24T22:31:10.468Z,0.40
2022-11-24T22:33:37.537Z,0.30
2022-11-24T22:36:04.966Z,0.30
2022-11-24T22:38:32.687Z,0.40
2022-11-24T22:41:05.184Z,0.30
2022-11-24T22:43:36.132Z,0.30
2022-11-24T22:46:10.900Z,0.30
2022-11-24T22:48:38.399Z,0.30
2022-11-24T22:51:11.367Z,0.30
2022-11-24T22:53:38.482Z,0.30
2022-11-24T22:56:10.687Z,0.40
2022-11-24T22:58:38.669Z,0.40
2022-11-24T23:01:13.528Z,0.40
2022-11-24T23:03:41.685Z,0.40
2022-11-24T23:06:16.582Z,0.30
2022-11-24T23:08:43.478Z,0.30
2022-11-24T23:11:17.250Z,0.30
2022-11-24T23:13:45.831Z,0.30
2022-11-24T23:16:17.991Z,0.32
2022-11-24T23:18:49.826Z,0.40
2022-11-24T23:21:20.751Z,0.40
2022-11-24T23:23:48.901Z,0.40
2022-11-24T23:26:21.864Z,0.30
2022-11-24T23:28:48.906Z,0.30
2022-11-24T23:31:18.279Z,0.30
2022-11-24T23:33:45.622Z,0.40
2022-11-24T23:36:15.094Z,0.40
2022-11-24T23:38:42.869Z,0.40
2022-11-24T23:41:12.477Z,0.30
2022-11-24T23:43:42.698Z,0.30
2022-11-24T23:46:12.908Z,0.30
2022-11-24T23:48:40.357Z,0.30
2022-11-24T23:51:15.273Z,0.40
2022-11-24T23:53:42.655Z,0.40
2022-11-24T23:56:14.377Z,0.40
2022-11-24T23:58:41.530Z,0.40
